Time;durP1;ratioP1;P1;durP2;ratioP2;P2;SDS_P1;SDS_P2;PMS_P1;PMS_P2;Temp;Humidity;BMP_temperature;BMP_pressure;BME280_temperature;BME280_humidity;BME280_pressure;Samples;Min_cycle;Max_cycle;Signal;HPM_P1;HPM_P2
2022/06/14 00:03:08;;;;;;;4.13;1.80;;;13.70;96.40;;;;;;5020070;28;20450;-89
2022/06/14 00:05:34;;;;;;;3.90;1.93;;;13.70;96.30;;;;;;5034398;28;20419;-89
2022/06/14 00:08:00;;;;;;;2.93;1.80;;;13.70;96.40;;;;;;5034037;28;20414;-89
2022/06/14 00:10:25;;;;;;;6.90;1.90;;;13.60;96.40;;;;;;5033462;28;20647;-89
2022/06/14 00:12:53;;;;;;;4.50;1.70;;;13.60;96.40;;;;;;5033867;28;20597;-89
2022/06/14 00:15:22;;;;;;;3.47;1.80;;;13.60;96.50;;;;;;5029790;28;20172;-90
2022/06/14 00:17:52;;;;;;;2.90;1.93;;;13.50;96.50;;;;;;5035042;28;20419;-90
2022/06/14 00:20:23;;;;;;;2.77;1.90;;;13.50;96.60;;;;;;5033433;28;20431;-89
2022/06/14 00:22:52;;;;;;;5.77;2.00;;;13.50;96.50;;;;;;5033664;28;20481;-89
2022/06/14 00:25:32;;;;;;;3.93;1.77;;;13.40;96.50;;;;;;5018827;28;20427;-90
2022/06/14 00:28:01;;;;;;;5.57;1.80;;;13.40;96.80;;;;;;5032996;28;20803;-88
2022/06/14 00:30:31;;;;;;;2.73;2.10;;;13.30;97.00;;;;;;5033289;28;20409;-88
2022/06/14 00:32:59;;;;;;;7.80;2.13;;;13.30;96.80;;;;;;5033436;28;20873;-87
2022/06/14 00:35:33;;;;;;;7.27;2.20;;;13.20;97.00;;;;;;5033350;28;20422;-88
2022/06/14 00:38:03;;;;;;;7.23;2.00;;;13.20;97.10;;;;;;5033334;28;20468;-88
2022/06/14 00:40:35;;;;;;;5.47;1.90;;;13.10;97.20;;;;;;5032958;28;20422;-89
2022/06/14 00:43:03;;;;;;;3.57;2.07;;;13.10;97.30;;;;;;5032671;28;20465;-89
2022/06/14 00:45:32;;;;;;;1.97;1.80;;;13.10;97.30;;;;;;5033619;28;20415;-88
2022/06/14 00:48:05;;;;;;;2.50;1.90;;;13.00;97.30;;;;;;5033181;28;20886;-90
2022/06/14 00:50:41;;;;;;;1.90;1.80;;;13.00;97.30;;;;;;5033502;28;20434;-88
2022/06/14 00:53:23;;;;;;;4.53;1.97;;;13.00;97.30;;;;;;5033005;28;21079;-88
2022/06/14 00:55:54;;;;;;;3.83;1.90;;;12.90;97.30;;;;;;5032908;28;20415;-89
2022/06/14 00:58:38;;;;;;;4.83;2.20;;;12.90;97.30;;;;;;5023841;28;20413;-88
2022/06/14 01:01:22;;;;;;;2.90;2.07;;;12.90;97.30;;;;;;5030960;28;20428;-88
2022/06/14 01:03:55;;;;;;;5.57;2.10;;;12.90;97.30;;;;;;5032933;28;20457;-89
2022/06/14 01:06:29;;;;;;;3.10;2.10;;;12.90;97.30;;;;;;5032444;28;20423;-89
2022/06/14 01:09:18;;;;;;;3.10;1.87;;;12.80;97.30;;;;;;5032614;28;20415;-90
2022/06/14 01:12:09;;;;;;;5.97;3.70;;;12.80;97.30;;;;;;5040850;28;20510;-90
2022/06/14 01:15:01;;;;;;;6.13;2.40;;;12.80;97.30;;;;;;5019852;28;20427;-89
2022/06/14 01:17:29;;;;;;;4.10;2.23;;;12.70;97.30;;;;;;5022049;28;21010;-89
2022/06/14 01:19:57;;;;;;;5.53;2.13;;;12.70;97.30;;;;;;5032846;28;20431;-88
2022/06/14 01:22:24;;;;;;;4.07;2.00;;;12.70;97.30;;;;;;5032745;28;20463;-89
2022/06/14 01:24:51;;;;;;;2.50;2.10;;;12.70;97.30;;;;;;5032998;28;20445;-89
2022/06/14 01:27:18;;;;;;;8.33;2.30;;;12.70;97.30;;;;;;5032426;28;20505;-89
2022/06/14 01:29:49;;;;;;;3.57;1.93;;;12.70;97.30;;;;;;5033465;28;20183;-91
2022/06/14 01:32:17;;;;;;;10.20;2.63;;;12.70;97.30;;;;;;5032331;28;20506;-90
2022/06/14 01:34:48;;;;;;;4.40;2.40;;;12.70;97.30;;;;;;5032869;28;20426;-89
2022/06/14 01:37:13;;;;;;;8.10;3.30;;;12.60;97.30;;;;;;5032652;28;20510;-88
2022/06/14 01:39:39;;;;;;;5.73;2.87;;;12.60;97.30;;;;;;5032104;28;20518;-89
2022/06/14 01:42:22;;;;;;;4.90;3.37;;;12.60;97.30;;;;;;5032174;28;20227;-91
2022/06/14 01:45:03;;;;;;;5.47;2.83;;;12.60;97.30;;;;;;5033188;28;20651;-89
2022/06/14 01:47:56;;;;;;;9.00;3.30;;;12.60;97.30;;;;;;5032835;28;20442;-89
2022/06/14 01:54:00;;;;;;;7.13;2.50;;;12.60;97.30;;;;;;5032612;28;20433;-89
2022/06/14 01:56:41;;;;;;;3.47;2.40;;;12.60;97.30;;;;;;5032199;28;20553;-89
2022/06/14 01:59:16;;;;;;;5.23;2.90;;;12.60;97.30;;;;;;5032737;28;20801;-88
2022/06/14 02:01:57;;;;;;;4.30;2.30;;;12.70;97.30;;;;;;5032666;28;21035;-89
2022/06/14 02:04:45;;;;;;;6.93;2.47;;;12.70;97.30;;;;;;5032468;28;20934;-89
2022/06/14 02:07:38;;;;;;;3.20;2.40;;;12.70;97.30;;;;;;5032554;28;20419;-89
2022/06/14 02:10:40;;;;;;;9.80;2.40;;;12.60;97.30;;;;;;5032598;28;20948;-89
2022/06/14 02:13:17;;;;;;;4.77;2.20;;;12.60;97.30;;;;;;5028775;28;20447;-89
2022/06/14 02:15:46;;;;;;;7.47;2.40;;;12.60;97.30;;;;;;5033683;28;20431;-92
2022/06/14 02:18:31;;;;;;;3.83;2.10;;;12.60;97.30;;;;;;5032605;28;20938;-89
2022/06/14 02:21:03;;;;;;;5.17;1.90;;;12.60;97.30;;;;;;5032749;28;20441;-91
2022/06/14 02:23:33;;;;;;;9.67;2.43;;;12.50;97.30;;;;;;5032421;28;20459;-89
2022/06/14 02:26:07;;;;;;;4.53;2.40;;;12.40;97.30;;;;;;5033566;28;20434;-89
2022/06/14 02:28:38;;;;;;;8.90;3.00;;;12.30;97.30;;;;;;5036430;28;20427;-90
2022/06/14 02:31:18;;;;;;;3.10;2.50;;;12.30;97.30;;;;;;5035948;28;20949;-89
2022/06/14 02:34:00;;;;;;;5.23;2.13;;;12.20;97.30;;;;;;5035434;28;20461;-89
2022/06/14 02:36:31;;;;;;;5.13;2.50;;;12.20;97.30;;;;;;5022996;28;20422;-89
2022/06/14 02:39:11;;;;;;;5.57;2.80;;;12.20;97.30;;;;;;5035661;28;20419;-89
2022/06/14 02:41:49;;;;;;;5.77;3.20;;;12.20;97.30;;;;;;5035660;28;20454;-90
2022/06/14 02:44:18;;;;;;;5.53;2.50;;;12.20;97.30;;;;;;5035847;28;21156;-91
2022/06/14 02:47:07;;;;;;;3.83;2.40;;;12.10;97.30;;;;;;5035953;28;20969;-91
2022/06/14 02:49:52;;;;;;;6.70;2.73;;;12.10;97.30;;;;;;5036209;28;20798;-91
2022/06/14 02:52:33;;;;;;;9.40;3.20;;;12.10;97.30;;;;;;5035458;28;20446;-91
2022/06/14 02:55:06;;;;;;;11.03;2.30;;;12.00;97.30;;;;;;5035680;28;20424;-91
2022/06/14 02:57:39;;;;;;;5.53;2.33;;;12.00;97.30;;;;;;5035316;28;20403;-90
2022/06/14 03:00:28;;;;;;;5.90;2.40;;;11.90;97.30;;;;;;5035392;28;20425;-93
2022/06/14 03:03:08;;;;;;;3.33;2.40;;;11.90;97.30;;;;;;5024317;28;20463;-89
2022/06/14 03:05:48;;;;;;;8.87;3.13;;;11.90;97.30;;;;;;5015997;28;20423;-90
2022/06/14 03:08:13;;;;;;;8.30;2.53;;;12.00;97.30;;;;;;5028769;28;20470;-91
2022/06/14 03:11:00;;;;;;;4.13;2.57;;;12.00;97.30;;;;;;5031131;28;20497;-91
2022/06/14 03:13:42;;;;;;;3.80;2.80;;;12.00;97.30;;;;;;5025439;23;20264;-83
2022/06/14 03:16:27;;;;;;;7.13;2.37;;;12.00;97.30;;;;;;4998247;28;20975;-83
2022/06/14 03:19:01;;;;;;;5.30;2.63;;;11.90;97.30;;;;;;4999258;28;20425;-82
2022/06/14 03:21:51;;;;;;;3.80;2.50;;;11.90;97.30;;;;;;5016145;28;20434;-81
2022/06/14 03:24:28;;;;;;;4.20;2.30;;;11.90;97.30;;;;;;5016879;28;20466;-82
2022/06/14 03:27:02;;;;;;;7.13;2.77;;;11.90;97.30;;;;;;5015890;28;20554;-82
2022/06/14 03:29:43;;;;;;;7.03;2.70;;;11.80;97.30;;;;;;5015253;28;20426;-83
2022/06/14 03:32:35;;;;;;;6.93;2.47;;;11.80;97.30;;;;;;5016078;28;20440;-82
2022/06/14 03:35:19;;;;;;;11.33;4.40;;;11.80;97.30;;;;;;5004596;28;20653;-83
2022/06/14 03:37:44;;;;;;;12.83;3.13;;;11.80;97.30;;;;;;5016008;28;20979;-84
2022/06/14 03:40:15;;;;;;;8.27;3.00;;;11.70;97.30;;;;;;5015494;28;20436;-82
2022/06/14 03:42:41;;;;;;;7.20;3.03;;;11.80;97.30;;;;;;5016633;28;20212;-82
2022/06/14 03:45:10;;;;;;;9.00;4.30;;;11.70;97.30;;;;;;5016347;28;20427;-83
2022/06/14 03:47:36;;;;;;;9.27;2.93;;;11.70;97.30;;;;;;5016318;28;20471;-83
2022/06/14 03:50:09;;;;;;;4.40;2.50;;;11.70;97.30;;;;;;5015862;28;20420;-83
2022/06/14 03:53:03;;;;;;;8.90;3.03;;;11.70;97.30;;;;;;5016909;28;20431;-83
2022/06/14 03:55:32;;;;;;;3.23;2.13;;;11.80;97.30;;;;;;5049168;28;20424;-83
2022/06/14 03:58:17;;;;;;;7.90;3.83;;;11.80;97.30;;;;;;5049136;28;20634;-84
2022/06/14 04:01:09;;;;;;;11.00;3.00;;;11.80;97.30;;;;;;5016756;28;20423;-83
2022/06/14 04:03:50;;;;;;;5.40;2.57;;;11.80;97.30;;;;;;5015955;28;20455;-84
2022/06/14 04:06:25;;;;;;;7.10;3.47;;;11.80;97.30;;;;;;5015187;28;20497;-80
2022/06/14 04:08:56;;;;;;;6.37;3.50;;;11.80;97.30;;;;;;5013195;28;20828;-81
2022/06/14 04:11:47;;;;;;;6.43;2.50;;;11.90;97.30;;;;;;5012724;28;21073;-81
2022/06/14 04:14:32;;;;;;;4.50;2.83;;;11.90;97.30;;;;;;5014169;28;20444;-83
2022/06/14 04:17:10;;;;;;;5.37;2.80;;;11.90;97.30;;;;;;5015309;28;20813;-84
2022/06/14 04:19:56;;;;;;;4.70;2.90;;;12.00;97.30;;;;;;5015720;28;20426;-83
2022/06/14 04:22:37;;;;;;;8.83;3.00;;;12.00;97.30;;;;;;5015734;28;20458;-83
2022/06/14 04:25:25;;;;;;;11.73;3.77;;;12.00;97.30;;;;;;5015137;28;20474;-82
2022/06/14 04:28:12;;;;;;;5.97;3.00;;;12.10;97.30;;;;;;5015757;28;20896;-82
2022/06/14 04:31:11;;;;;;;6.33;2.90;;;12.10;97.30;;;;;;5015827;28;20428;-82
2022/06/14 04:33:42;;;;;;;7.40;3.10;;;12.20;97.30;;;;;;5015993;28;20792;-82
2022/06/14 04:36:16;;;;;;;6.10;3.47;;;12.10;97.30;;;;;;5016543;28;20420;-81
2022/06/14 04:38:51;;;;;;;15.60;3.70;;;12.20;97.30;;;;;;5015196;28;20446;-82
2022/06/14 04:41:47;;;;;;;8.63;3.20;;;12.20;97.30;;;;;;5015407;28;20420;-82
2022/06/14 04:44:32;;;;;;;7.90;3.23;;;12.20;97.30;;;;;;5014918;28;20526;-81
2022/06/14 04:47:23;;;;;;;3.60;2.67;;;12.20;97.30;;;;;;5014795;28;20459;-81
2022/06/14 04:50:02;;;;;;;11.00;3.77;;;12.30;97.30;;;;;;5014250;28;20508;-82
2022/06/14 04:53:01;;;;;;;6.53;3.60;;;12.30;97.30;;;;;;5015315;28;20483;-82
2022/06/14 04:55:44;;;;;;;6.83;3.90;;;12.40;97.30;;;;;;5004151;28;20443;-82
2022/06/14 04:58:36;;;;;;;7.20;3.13;;;12.40;97.30;;;;;;5004345;28;20433;-82
2022/06/14 05:01:28;;;;;;;6.97;3.20;;;12.50;97.30;;;;;;5026081;28;20425;-81
2022/06/14 05:04:17;;;;;;;5.60;2.43;;;12.60;97.30;;;;;;5007868;28;20499;-82
2022/06/14 05:06:55;;;;;;;13.23;3.20;;;12.60;97.30;;;;;;5026152;28;20491;-84
2022/06/14 05:09:52;;;;;;;6.40;3.20;;;12.70;97.30;;;;;;5010757;28;20424;-83
2022/06/14 05:12:31;;;;;;;25.30;4.13;;;12.70;97.30;;;;;;5011484;28;20633;-82
2022/06/14 05:15:14;;;;;;;7.10;2.60;;;12.80;97.30;;;;;;5014820;28;20424;-81
2022/06/14 05:17:58;;;;;;;6.77;2.80;;;12.90;97.30;;;;;;5014699;28;21107;-82
2022/06/14 05:20:37;;;;;;;6.37;2.80;;;12.90;97.30;;;;;;5014957;28;20419;-83
2022/06/14 05:23:26;;;;;;;5.90;2.63;;;13.00;97.30;;;;;;5011166;28;20836;-83
2022/06/14 05:26:34;;;;;;;4.57;2.70;;;13.00;97.30;;;;;;5016377;28;20435;-83
2022/06/14 05:29:16;;;;;;;5.20;2.97;;;13.10;97.30;;;;;;5008291;28;20425;-85
2022/06/14 05:32:02;;;;;;;4.10;2.30;;;13.10;97.30;;;;;;5004459;28;20798;-86
2022/06/14 05:34:40;;;;;;;7.27;2.87;;;13.10;97.30;;;;;;5011048;28;20415;-82
2022/06/14 05:37:42;;;;;;;4.70;2.40;;;13.10;97.30;;;;;;5003517;28;20513;-85
2022/06/14 05:40:23;;;;;;;5.47;2.60;;;13.20;97.30;;;;;;5012079;28;20416;-81
2022/06/14 05:43:05;;;;;;;9.47;3.27;;;13.30;97.30;;;;;;5012689;28;20891;-83
2022/06/14 05:45:42;;;;;;;10.40;3.90;;;13.30;97.30;;;;;;4993705;28;20449;-83
2022/06/14 05:48:22;;;;;;;7.77;2.63;;;13.40;97.30;;;;;;4993174;28;20444;-83
2022/06/14 05:50:51;;;;;;;5.97;2.63;;;13.40;97.30;;;;;;4993565;28;20424;-83
2022/06/14 05:53:33;;;;;;;6.03;2.60;;;13.50;97.30;;;;;;4993464;28;20876;-82
2022/06/14 05:56:09;;;;;;;6.23;3.00;;;13.50;97.30;;;;;;4992858;28;20478;-82
2022/06/14 05:59:05;;;;;;;4.63;2.00;;;13.50;97.30;;;;;;4993005;28;20821;-82
2022/06/14 06:01:48;;;;;;;5.63;2.67;;;13.60;97.30;;;;;;4997147;28;20412;-84
2022/06/14 06:04:25;;;;;;;3.30;2.33;;;13.60;97.30;;;;;;5003848;28;20459;-86
2022/06/14 06:07:00;;;;;;;6.33;2.30;;;13.70;97.30;;;;;;5013506;28;20531;-84
2022/06/14 06:09:52;;;;;;;7.00;2.60;;;13.70;97.30;;;;;;5014412;28;20913;-84
2022/06/14 06:12:23;;;;;;;5.57;2.50;;;13.80;97.30;;;;;;5014271;28;20494;-84
2022/06/14 06:14:57;;;;;;;6.13;2.37;;;13.80;97.20;;;;;;5014271;28;20424;-84
2022/06/14 06:17:31;;;;;;;5.20;2.23;;;13.80;96.90;;;;;;5013913;28;20447;-84
2022/06/14 06:20:03;;;;;;;4.03;2.10;;;13.90;96.70;;;;;;5013726;28;20765;-83
2022/06/14 06:22:43;;;;;;;5.37;2.13;;;13.90;96.10;;;;;;5014225;28;20536;-83
2022/06/14 06:25:15;;;;;;;4.63;2.57;;;14.00;95.90;;;;;;5014086;28;20723;-84
2022/06/14 06:28:07;;;;;;;6.03;2.17;;;14.00;96.30;;;;;;5013532;28;20439;-84
2022/06/14 06:30:49;;;;;;;6.20;2.30;;;14.10;96.10;;;;;;5008664;28;20504;-84
2022/06/14 06:33:17;;;;;;;4.57;2.03;;;14.20;95.50;;;;;;5013404;28;20955;-84
2022/06/14 06:36:03;;;;;;;3.20;1.80;;;14.20;95.40;;;;;;5013267;28;20426;-84
2022/06/14 06:38:31;;;;;;;3.53;1.80;;;14.30;95.80;;;;;;5013246;28;20434;-84
2022/06/14 06:43:53;;;;;;;6.17;1.87;;;14.40;94.80;;;;;;5014412;28;20805;-84
2022/06/14 06:46:24;;;;;;;5.00;2.30;;;14.40;94.80;;;;;;5012598;28;20455;-84
2022/06/14 06:48:57;;;;;;;7.93;2.20;;;14.40;94.60;;;;;;5012988;28;20416;-84
2022/06/14 06:51:29;;;;;;;4.67;2.10;;;14.40;94.20;;;;;;5014073;28;20412;-84
2022/06/14 06:54:19;;;;;;;4.70;1.80;;;14.40;94.40;;;;;;5012881;28;20427;-85
2022/06/14 06:56:49;;;;;;;5.17;1.77;;;14.50;94.80;;;;;;5012656;28;20965;-84
2022/06/14 06:59:38;;;;;;;2.83;1.70;;;14.50;93.30;;;;;;5013083;28;20424;-85
2022/06/14 07:02:37;;;;;;;6.40;2.03;;;14.50;93.20;;;;;;5012945;28;20515;-85
2022/06/14 07:05:05;;;;;;;3.70;2.03;;;14.50;92.90;;;;;;4998969;28;20467;-85
2022/06/14 07:07:37;;;;;;;5.03;2.20;;;14.60;92.60;;;;;;5012659;28;20518;-84
2022/06/14 07:10:08;;;;;;;7.17;2.00;;;14.60;93.20;;;;;;5012648;28;20458;-85
2022/06/14 07:13:03;;;;;;;4.43;2.50;;;14.70;93.50;;;;;;5012106;28;20472;-85
2022/06/14 07:15:39;;;;;;;6.00;2.33;;;14.70;93.30;;;;;;5012468;28;20413;-84
2022/06/14 07:18:21;;;;;;;4.67;1.87;;;14.80;92.40;;;;;;5012386;28;20439;-85
2022/06/14 07:21:06;;;;;;;7.27;2.10;;;14.90;92.70;;;;;;5012310;28;20415;-84
2022/06/14 07:24:13;;;;;;;4.33;2.00;;;14.90;92.60;;;;;;5012155;28;20546;-84
2022/06/14 07:26:49;;;;;;;5.60;2.10;;;15.00;92.60;;;;;;5001193;28;20537;-84
2022/06/14 07:29:26;;;;;;;5.43;2.23;;;15.10;92.60;;;;;;5012556;28;20442;-85
2022/06/14 07:32:06;;;;;;;6.57;2.43;;;15.20;92.00;;;;;;5011635;28;20515;-84
2022/06/14 07:34:33;;;;;;;6.00;2.00;;;15.30;92.20;;;;;;5011857;28;20423;-84
2022/06/14 07:37:41;;;;;;;6.63;2.00;;;15.40;91.20;;;;;;5013672;28;20440;-84
2022/06/14 07:40:17;;;;;;;10.37;2.60;;;15.40;91.80;;;;;;4968731;28;20424;-85
2022/06/14 07:42:53;;;;;;;3.70;2.20;;;15.60;91.20;;;;;;5011264;28;20972;-84
2022/06/14 07:45:28;;;;;;;5.90;1.93;;;15.60;90.80;;;;;;5011611;28;20424;-84
2022/06/14 07:48:12;;;;;;;6.77;2.60;;;15.70;90.50;;;;;;5012418;28;20749;-83
2022/06/14 07:50:42;;;;;;;5.20;2.27;;;15.70;90.90;;;;;;5011895;28;20420;-84
2022/06/14 07:53:18;;;;;;;3.87;1.80;;;15.70;90.50;;;;;;5012096;28;20844;-84
2022/06/14 07:55:49;;;;;;;7.30;1.90;;;15.70;90.50;;;;;;5012192;28;20515;-86
2022/06/14 07:58:34;;;;;;;5.00;2.00;;;15.70;91.30;;;;;;5012287;28;20475;-84
2022/06/14 08:01:09;;;;;;;6.23;2.10;;;15.70;90.50;;;;;;5012226;28;20431;-84
2022/06/14 08:03:47;;;;;;;13.70;4.20;;;15.70;90.00;;;;;;5013892;28;20454;-84
2022/06/14 08:06:20;;;;;;;7.00;3.20;;;15.80;90.00;;;;;;5011181;28;20934;-84
2022/06/14 08:08:56;;;;;;;6.03;2.17;;;15.80;90.30;;;;;;5011578;28;20439;-84
2022/06/14 08:11:59;;;;;;;13.07;2.20;;;15.90;90.70;;;;;;5011860;28;20454;-84
2022/06/14 08:14:27;;;;;;;4.97;1.90;;;16.00;90.20;;;;;;4974985;28;20472;-82
2022/06/14 08:16:54;;;;;;;5.93;2.27;;;16.00;90.40;;;;;;5004110;28;20432;-83
2022/06/14 08:19:34;;;;;;;14.77;2.43;;;16.10;90.20;;;;;;5011667;28;20412;-84
2022/06/14 08:22:07;;;;;;;6.20;2.23;;;16.20;90.20;;;;;;5011085;28;20420;-83
2022/06/14 08:24:47;;;;;;;3.50;2.07;;;16.30;90.10;;;;;;5011813;28;20547;-84
2022/06/14 08:27:20;;;;;;;3.43;2.10;;;16.30;89.40;;;;;;5011903;28;20498;-83
2022/06/14 08:29:54;;;;;;;14.07;2.87;;;16.40;89.30;;;;;;5010735;28;20840;-84
2022/06/14 08:32:25;;;;;;;6.97;1.90;;;16.50;89.00;;;;;;4998973;28;20504;-84
2022/06/14 08:35:01;;;;;;;5.80;1.90;;;16.50;88.40;;;;;;5009278;28;21027;-83
2022/06/14 08:37:45;;;;;;;3.97;1.80;;;16.50;88.70;;;;;;5010558;28;20431;-84
2022/06/14 08:40:21;;;;;;;6.23;2.13;;;16.60;88.50;;;;;;5011016;28;20891;-84
2022/06/14 08:42:56;;;;;;;5.63;2.10;;;16.80;88.00;;;;;;5010466;28;20462;-84
2022/06/14 08:45:39;;;;;;;3.80;2.00;;;16.80;87.40;;;;;;5011175;28;20462;-84
2022/06/14 08:48:17;;;;;;;5.37;2.03;;;16.90;87.90;;;;;;5011565;28;20478;-84
2022/06/14 08:51:10;;;;;;;10.70;3.23;;;17.10;88.00;;;;;;5011701;28;20404;-84
2022/06/14 08:53:47;;;;;;;9.17;2.47;;;17.20;87.60;;;;;;5011498;28;20408;-84
2022/06/14 08:57:00;;;;;;;7.80;2.00;;;17.20;87.10;;;;;;5010955;28;20443;-84
2022/06/14 08:59:43;;;;;;;5.30;2.30;;;17.20;86.60;;;;;;5001595;28;20730;-84
2022/06/14 09:02:15;;;;;;;5.33;2.10;;;17.10;86.80;;;;;;5009997;28;20420;-84
2022/06/14 09:05:16;;;;;;;5.43;2.30;;;17.10;86.80;;;;;;5010304;28;20443;-84
2022/06/14 09:08:07;;;;;;;4.37;2.10;;;17.10;86.70;;;;;;4992270;28;20521;-85
2022/06/14 09:10:39;;;;;;;5.30;1.93;;;17.10;86.50;;;;;;5010362;28;20977;-84
2022/06/14 09:13:36;;;;;;;5.03;2.43;;;17.20;86.20;;;;;;5011142;28;20487;-84
2022/06/14 09:16:04;;;;;;;10.37;2.70;;;17.30;86.70;;;;;;5012271;28;20479;-86
2022/06/14 09:19:14;;;;;;;10.53;2.17;;;17.30;85.30;;;;;;4993592;28;20431;-86
2022/06/14 09:21:52;;;;;;;20.37;5.00;;;17.30;85.90;;;;;;4972725;28;20454;-86
2022/06/14 09:24:50;;;;;;;7.57;2.23;;;17.40;85.50;;;;;;5010216;28;20462;-85
2022/06/14 09:27:51;;;;;;;6.13;2.43;;;17.40;85.80;;;;;;5011691;28;20448;-85
2022/06/14 09:30:31;;;;;;;7.07;2.53;;;17.50;86.30;;;;;;5013462;28;20412;-85
2022/06/14 09:33:20;;;;;;;5.87;2.27;;;17.60;85.90;;;;;;5012385;28;20424;-86
2022/06/14 09:35:54;;;;;;;5.30;2.23;;;17.70;85.80;;;;;;5011454;28;21072;-86
2022/06/14 09:38:47;;;;;;;6.83;1.97;;;17.80;85.10;;;;;;5011856;28;20796;-85
2022/06/14 09:41:22;;;;;;;4.73;2.20;;;17.90;85.00;;;;;;5009312;28;20436;-88
2022/06/14 09:44:02;;;;;;;7.80;2.60;;;17.90;84.60;;;;;;5008984;28;20473;-86
2022/06/14 09:47:06;;;;;;;4.93;2.43;;;17.90;84.50;;;;;;5009569;28;20479;-85
2022/06/14 09:49:54;;;;;;;7.10;2.20;;;17.90;84.50;;;;;;5010002;28;20435;-86
2022/06/14 09:52:42;;;;;;;10.53;1.80;;;18.00;84.60;;;;;;5009339;28;20428;-85
2022/06/14 09:55:29;;;;;;;5.03;1.80;;;18.10;83.80;;;;;;5009408;28;20515;-86
2022/06/14 09:58:14;;;;;;;3.80;2.20;;;18.30;82.60;;;;;;5009038;28;20523;-85
2022/06/14 10:00:59;;;;;;;9.47;2.43;;;18.40;83.70;;;;;;5009757;28;20457;-87
2022/06/14 10:03:40;;;;;;;8.63;3.23;;;18.40;83.90;;;;;;5007270;28;20513;-85
2022/06/14 10:06:41;;;;;;;5.80;2.00;;;18.50;84.60;;;;;;5009476;28;20459;-85
2022/06/14 10:09:20;;;;;;;8.17;2.30;;;18.70;84.60;;;;;;5028711;28;20442;-85
2022/06/14 10:11:49;;;;;;;3.67;2.23;;;18.90;84.80;;;;;;5010241;28;20533;-86
2022/06/14 10:14:27;;;;;;;3.63;1.80;;;19.00;83.70;;;;;;5009223;28;20428;-86
2022/06/14 10:17:21;;;;;;;7.77;2.03;;;19.10;83.30;;;;;;5009650;28;20985;-86
2022/06/14 10:19:55;;;;;;;6.03;2.10;;;19.10;82.30;;;;;;5009149;28;20937;-85
2022/06/14 10:22:35;;;;;;;7.37;2.30;;;19.10;82.70;;;;;;5009497;28;20945;-86
2022/06/14 10:25:12;;;;;;;7.70;2.20;;;19.00;81.70;;;;;;5010913;28;20910;-85
2022/06/14 10:28:12;;;;;;;3.93;2.10;;;18.90;81.20;;;;;;5010669;28;20796;-86
2022/06/14 10:31:06;;;;;;;5.23;2.50;;;18.80;82.00;;;;;;5006394;28;20448;-86
2022/06/14 10:33:53;;;;;;;3.93;2.37;;;18.90;82.10;;;;;;4990793;28;20448;-85
2022/06/14 10:36:54;;;;;;;9.13;2.00;;;18.90;81.90;;;;;;4989147;28;20424;-86
2022/06/14 10:39:33;;;;;;;7.43;2.20;;;18.90;81.60;;;;;;4969497;28;20619;-85
2022/06/14 10:42:17;;;;;;;7.87;2.23;;;18.80;81.60;;;;;;5008932;28;20926;-86
2022/06/14 10:45:07;;;;;;;4.20;2.70;;;18.70;81.50;;;;;;5009285;28;20416;-85
2022/06/14 10:47:42;;;;;;;4.10;2.40;;;18.70;81.90;;;;;;5014507;28;20455;-86
2022/06/14 10:50:25;;;;;;;8.60;3.03;;;18.60;82.10;;;;;;5015103;28;20412;-85
2022/06/14 10:53:29;;;;;;;8.07;2.53;;;18.60;82.00;;;;;;5016225;28;20614;-86
2022/06/14 10:56:26;;;;;;;6.03;2.33;;;18.70;82.80;;;;;;5017118;28;20442;-85
2022/06/14 10:59:18;;;;;;;3.90;2.27;;;18.80;81.70;;;;;;5018320;28;20419;-86
2022/06/14 11:02:17;;;;;;;3.80;2.50;;;19.00;81.30;;;;;;5016333;28;20415;-86
2022/06/14 11:04:52;;;;;;;13.73;3.40;;;19.20;83.00;;;;;;5017792;28;20933;-85
2022/06/14 11:07:47;;;;;;;6.33;2.30;;;19.40;81.60;;;;;;5017181;28;20462;-85
2022/06/14 11:10:43;;;;;;;5.27;2.47;;;19.50;81.10;;;;;;5017126;28;20424;-86
2022/06/14 11:13:48;;;;;;;8.27;2.87;;;19.50;80.70;;;;;;5016238;28;20463;-86
2022/06/14 11:16:30;;;;;;;7.27;2.33;;;19.50;80.30;;;;;;5016779;28;20527;-86
2022/06/14 11:22:23;;;;;;;7.27;2.43;;;19.60;80.00;;;;;;5018157;28;20405;-86
2022/06/14 11:25:17;;;;;;;7.13;2.73;;;19.70;79.50;;;;;;4998020;28;20429;-86
2022/06/14 11:27:52;;;;;;;7.03;2.33;;;19.80;79.70;;;;;;4998826;28;20520;-86
2022/06/14 11:30:31;;;;;;;4.20;2.20;;;19.80;79.40;;;;;;5008933;28;20427;-86
2022/06/14 11:33:30;;;;;;;4.20;2.47;;;19.80;79.50;;;;;;5016409;28;20843;-86
2022/06/14 11:36:25;;;;;;;5.63;2.13;;;19.90;80.00;;;;;;5013359;28;20795;-86
2022/06/14 11:39:10;;;;;;;6.67;2.33;;;20.00;77.80;;;;;;4996302;28;20473;-86
2022/06/14 11:41:45;;;;;;;4.23;2.50;;;20.10;77.60;;;;;;5005406;23;20473;-89
2022/06/14 11:44:50;;;;;;;3.93;2.33;;;20.10;79.00;;;;;;5008714;28;20455;-91
2022/06/14 11:47:56;;;;;;;4.87;2.20;;;20.30;78.60;;;;;;5014474;28;21049;-90
2022/06/14 11:51:05;;;;;;;5.10;2.10;;;20.40;78.10;;;;;;5015780;28;20777;-87
2022/06/14 11:57:01;;;;;;;9.37;2.40;;;20.50;78.70;;;;;;5010104;28;20710;-87
2022/06/14 11:59:43;;;;;;;10.10;2.23;;;20.50;78.10;;;;;;5009572;28;20507;-89
2022/06/14 12:02:23;;;;;;;9.97;2.60;;;20.60;78.00;;;;;;5014920;28;20471;-90
2022/06/14 12:05:16;;;;;;;4.33;2.40;;;20.70;79.10;;;;;;5014088;28;20412;-90
2022/06/14 12:08:11;;;;;;;9.37;2.50;;;20.90;78.70;;;;;;5016722;28;20443;-90
2022/06/14 12:10:52;;;;;;;3.60;1.90;;;21.10;78.60;;;;;;5005157;28;20408;-90
2022/06/14 12:13:56;;;;;;;5.33;2.20;;;21.30;76.80;;;;;;5014163;28;21166;-89
2022/06/14 12:16:43;;;;;;;4.13;2.03;;;21.50;76.20;;;;;;5014436;28;20419;-89
2022/06/14 12:19:18;;;;;;;7.03;2.10;;;21.60;75.40;;;;;;5014758;28;20438;-91
2022/06/14 12:21:57;;;;;;;4.17;2.00;;;21.70;75.10;;;;;;5008575;28;20427;-91
2022/06/14 12:26:34;;;;;;;8.23;2.53;;;21.90;75.20;;;;;;5014432;28;20501;-91
2022/06/14 12:27:14;;;;;;;4.13;1.80;;;22.00;74.50;;;;;;5017083;28;20949;-92
2022/06/14 12:29:44;;;;;;;3.43;1.90;;;22.00;74.90;;;;;;5014471;28;20407;-91
2022/06/14 12:32:39;;;;;;;3.80;2.03;;;22.10;75.40;;;;;;5001991;28;20847;-91
2022/06/14 12:35:24;;;;;;;6.00;2.27;;;22.20;77.10;;;;;;5002030;28;20413;-90
2022/06/14 12:38:03;;;;;;;3.67;1.70;;;22.40;77.70;;;;;;5018145;28;20830;-90
2022/06/14 12:40:53;;;;;;;3.00;2.20;;;22.40;74.00;;;;;;5014281;28;20424;-91
2022/06/14 12:43:38;;;;;;;5.13;1.90;;;22.30;74.80;;;;;;5013121;28;20483;-90
2022/06/14 12:46:12;;;;;;;4.30;2.03;;;22.30;75.70;;;;;;5011138;28;20429;-90
2022/06/14 12:49:03;;;;;;;5.53;1.77;;;22.30;74.80;;;;;;5014435;28;20430;-91
2022/06/14 12:51:46;;;;;;;8.17;2.97;;;22.20;74.30;;;;;;5009745;28;21092;-90
2022/06/14 12:54:17;;;;;;;4.93;1.90;;;22.00;74.20;;;;;;5012985;28;20412;-90
2022/06/14 12:57:04;;;;;;;5.37;1.83;;;21.80;74.70;;;;;;5011752;28;20456;-90
2022/06/14 12:59:46;;;;;;;5.80;2.20;;;21.90;76.00;;;;;;5015848;28;20474;-90
2022/06/14 13:02:36;;;;;;;2.43;1.83;;;22.10;77.30;;;;;;5015275;28;20491;-91
2022/06/14 13:05:15;;;;;;;6.10;2.20;;;22.30;77.70;;;;;;5002021;28;20417;-91
2022/06/14 13:07:50;;;;;;;5.47;1.77;;;22.50;76.70;;;;;;5008917;28;20408;-90
2022/06/14 13:10:43;;;;;;;4.77;2.30;;;22.60;74.70;;;;;;5012476;28;20412;-92
2022/06/14 13:13:31;;;;;;;4.73;2.47;;;22.70;73.10;;;;;;5009393;28;20436;-91
2022/06/14 13:16:13;;;;;;;4.43;2.47;;;22.80;73.80;;;;;;5011279;28;20431;-92
2022/06/14 13:19:06;;;;;;;3.93;2.50;;;22.80;72.70;;;;;;5014753;28;20439;-91
2022/06/14 13:21:56;;;;;;;7.60;2.00;;;22.90;73.00;;;;;;5000455;28;20613;-89
2022/06/14 13:24:52;;;;;;;2.87;1.80;;;23.10;74.80;;;;;;5012127;28;20555;-90
2022/06/14 13:27:26;;;;;;;4.80;2.10;;;23.30;73.20;;;;;;5013963;28;20926;-90
2022/06/14 13:30:19;;;;;;;6.47;1.97;;;23.50;71.90;;;;;;5014314;28;20933;-90
2022/06/14 13:33:27;;;;;;;4.90;1.83;;;23.70;72.40;;;;;;5020724;28;20459;-91
2022/06/14 13:36:01;;;;;;;9.53;2.53;;;23.90;71.90;;;;;;5015563;28;20489;-89
2022/06/14 13:38:34;;;;;;;6.27;2.50;;;24.00;73.20;;;;;;5014129;28;20467;-90
2022/06/14 13:41:05;;;;;;;7.90;2.43;;;24.20;71.90;;;;;;5015232;28;20496;-89
2022/06/14 13:43:50;;;;;;;8.23;2.10;;;24.30;72.00;;;;;;5014466;28;20476;-90
2022/06/14 13:46:23;;;;;;;4.50;2.00;;;24.40;71.20;;;;;;4998713;28;20416;-90
2022/06/14 13:49:15;;;;;;;6.00;1.83;;;24.40;70.00;;;;;;5013800;28;20412;-90
2022/06/14 13:51:53;;;;;;;4.47;1.80;;;24.20;70.70;;;;;;5014889;28;20463;-91
2022/06/14 13:54:28;;;;;;;11.43;2.70;;;24.20;72.30;;;;;;5012648;28;20467;-90
2022/06/14 13:57:05;;;;;;;6.20;1.80;;;24.30;72.60;;;;;;5027371;28;20420;-91
2022/06/14 13:59:35;;;;;;;4.60;2.50;;;24.20;71.80;;;;;;5012434;28;20416;-90
2022/06/14 14:02:41;;;;;;;3.80;2.07;;;24.10;71.40;;;;;;5012621;28;20439;-90
2022/06/14 14:05:13;;;;;;;5.47;2.20;;;24.00;71.50;;;;;;5003834;28;20428;-90
2022/06/14 14:07:53;;;;;;;3.73;1.87;;;23.90;72.50;;;;;;5000078;28;20420;-90
2022/06/14 14:10:57;;;;;;;3.90;1.67;;;24.00;73.60;;;;;;5013407;28;20458;-90
2022/06/14 14:13:31;;;;;;;5.47;2.30;;;24.00;73.90;;;;;;4950033;28;20442;-90